sensor_id;sensor_type;location;lat;lon;timestamp;temperature;humidity
14577;DHT22;7375;46.072;14.470;2023-03-31T00:01:49;23.60;49.90
14577;DHT22;7375;46.072;14.470;2023-03-31T00:04:17;23.60;50.00
14577;DHT22;7375;46.072;14.470;2023-03-31T00:06:48;23.60;50.00
14577;DHT22;7375;46.072;14.470;2023-03-31T00:09:19;23.60;50.00
14577;DHT22;7375;46.072;14.470;2023-03-31T00:11:47;23.60;50.00
14577;DHT22;7375;46.072;14.470;2023-03-31T00:14:14;23.70;49.90
14577;DHT22;7375;46.072;14.470;2023-03-31T00:16:42;23.60;49.90
14577;DHT22;7375;46.072;14.470;2023-03-31T00:19:10;23.70;49.90
14577;DHT22;7375;46.072;14.470;2023-03-31T00:21:42;23.60;49.90
14577;DHT22;7375;46.072;14.470;2023-03-31T00:24:09;23.70;49.90
14577;DHT22;7375;46.072;14.470;2023-03-31T00:26:38;23.70;50.00
14577;DHT22;7375;46.072;14.470;2023-03-31T00:29:05;23.70;50.00
14577;DHT22;7375;46.072;14.470;2023-03-31T00:31:32;23.70;49.90
14577;DHT22;7375;46.072;14.470;2023-03-31T00:33:59;23.60;49.90
14577;DHT22;7375;46.072;14.470;2023-03-31T00:36:26;23.70;49.90
14577;DHT22;7375;46.072;14.470;2023-03-31T00:38:53;23.70;49.90
14577;DHT22;7375;46.072;14.470;2023-03-31T00:41:20;23.70;49.90
14577;DHT22;7375;46.072;14.470;2023-03-31T00:46:37;23.60;49.90
14577;DHT22;7375;46.072;14.470;2023-03-31T00:49:07;23.60;49.90
14577;DHT22;7375;46.072;14.470;2023-03-31T00:51:36;23.70;49.90
14577;DHT22;7375;46.072;14.470;2023-03-31T00:54:04;23.60;49.70
14577;DHT22;7375;46.072;14.470;2023-03-31T00:56:33;23.60;49.80
14577;DHT22;7375;46.072;14.470;2023-03-31T00:59:02;23.70;49.80
14577;DHT22;7375;46.072;14.470;2023-03-31T01:01:29;23.60;49.70
14577;DHT22;7375;46.072;14.470;2023-03-31T01:03:57;23.60;49.90
14577;DHT22;7375;46.072;14.470;2023-03-31T01:06:24;23.60;49.80
14577;DHT22;7375;46.072;14.470;2023-03-31T01:08:55;23.60;50.00
14577;DHT22;7375;46.072;14.470;2023-03-31T01:11:22;23.60;49.90
14577;DHT22;7375;46.072;14.470;2023-03-31T01:13:50;23.60;49.80
14577;DHT22;7375;46.072;14.470;2023-03-31T01:16:20;23.60;49.90
14577;DHT22;7375;46.072;14.470;2023-03-31T01:18:47;23.60;49.90
14577;DHT22;7375;46.072;14.470;2023-03-31T01:21:38;23.60;49.90
14577;DHT22;7375;46.072;14.470;2023-03-31T01:29:58;23.60;49.80
14577;DHT22;7375;46.072;14.470;2023-03-31T01:35:19;23.60;49.80
14577;DHT22;7375;46.072;14.470;2023-03-31T01:38:00;23.60;49.80
14577;DHT22;7375;46.072;14.470;2023-03-31T01:40:39;23.60;49.80
14577;DHT22;7375;46.072;14.470;2023-03-31T01:43:09;23.50;49.70
14577;DHT22;7375;46.072;14.470;2023-03-31T01:45:46;23.60;49.70
14577;DHT22;7375;46.072;14.470;2023-03-31T01:48:18;23.60;49.80
14577;DHT22;7375;46.072;14.470;2023-03-31T01:50:49;23.60;49.80
14577;DHT22;7375;46.072;14.470;2023-03-31T01:53:21;23.60;49.80
14577;DHT22;7375;46.072;14.470;2023-03-31T01:55:56;23.60;49.90
14577;DHT22;7375;46.072;14.470;2023-03-31T01:58:27;23.50;49.70
14577;DHT22;7375;46.072;14.470;2023-03-31T02:00:58;23.60;49.80
14577;DHT22;7375;46.072;14.470;2023-03-31T02:03:27;23.60;49.70
14577;DHT22;7375;46.072;14.470;2023-03-31T02:05:55;23.50;49.70
14577;DHT22;7375;46.072;14.470;2023-03-31T02:08:23;23.60;49.80
14577;DHT22;7375;46.072;14.470;2023-03-31T02:10:54;23.60;49.70
14577;DHT22;7375;46.072;14.470;2023-03-31T02:13:21;23.60;49.70
14577;DHT22;7375;46.072;14.470;2023-03-31T02:15:50;23.50;49.70
14577;DHT22;7375;46.072;14.470;2023-03-31T02:18:18;23.60;49.80
14577;DHT22;7375;46.072;14.470;2023-03-31T02:20:47;23.60;49.70
14577;DHT22;7375;46.072;14.470;2023-03-31T02:23:15;23.50;49.80
14577;DHT22;7375;46.072;14.470;2023-03-31T02:25:46;23.50;49.80
14577;DHT22;7375;46.072;14.470;2023-03-31T02:28:17;23.50;49.80
14577;DHT22;7375;46.072;14.470;2023-03-31T02:30:47;23.60;49.80
14577;DHT22;7375;46.072;14.470;2023-03-31T02:33:17;23.50;49.70
14577;DHT22;7375;46.072;14.470;2023-03-31T02:35:43;23.50;49.80
14577;DHT22;7375;46.072;14.470;2023-03-31T02:38:10;23.50;49.80
14577;DHT22;7375;46.072;14.470;2023-03-31T02:40:37;23.50;49.80
14577;DHT22;7375;46.072;14.470;2023-03-31T02:43:04;23.60;49.90
14577;DHT22;7375;46.072;14.470;2023-03-31T02:45:39;23.60;49.70
14577;DHT22;7375;46.072;14.470;2023-03-31T02:48:08;23.60;49.70
14577;DHT22;7375;46.072;14.470;2023-03-31T02:50:37;23.50;49.70
14577;DHT22;7375;46.072;14.470;2023-03-31T02:53:08;23.50;49.80
14577;DHT22;7375;46.072;14.470;2023-03-31T02:55:40;23.50;49.90
14577;DHT22;7375;46.072;14.470;2023-03-31T03:01:06;23.40;49.90
14577;DHT22;7375;46.072;14.470;2023-03-31T03:03:37;23.40;49.90
14577;DHT22;7375;46.072;14.470;2023-03-31T03:06:10;23.40;49.80
14577;DHT22;7375;46.072;14.470;2023-03-31T03:08:43;23.40;50.00
14577;DHT22;7375;46.072;14.470;2023-03-31T03:11:20;23.40;50.00
14577;DHT22;7375;46.072;14.470;2023-03-31T03:13:48;23.40;49.90
14577;DHT22;7375;46.072;14.470;2023-03-31T03:16:18;23.40;49.90
14577;DHT22;7375;46.072;14.470;2023-03-31T03:18:54;23.40;49.90
14577;DHT22;7375;46.072;14.470;2023-03-31T03:21:21;23.40;49.90
14577;DHT22;7375;46.072;14.470;2023-03-31T03:23:48;23.40;50.00
14577;DHT22;7375;46.072;14.470;2023-03-31T03:26:16;23.40;49.90
14577;DHT22;7375;46.072;14.470;2023-03-31T03:28:45;23.40;49.90
14577;DHT22;7375;46.072;14.470;2023-03-31T03:31:13;23.40;50.00
14577;DHT22;7375;46.072;14.470;2023-03-31T03:33:42;23.40;50.00
14577;DHT22;7375;46.072;14.470;2023-03-31T03:36:09;23.40;50.00
14577;DHT22;7375;46.072;14.470;2023-03-31T03:38:36;23.80;49.40
14577;DHT22;7375;46.072;14.470;2023-03-31T03:41:03;24.40;48.10
14577;DHT22;7375;46.072;14.470;2023-03-31T03:43:29;25.10;46.80
14577;DHT22;7375;46.072;14.470;2023-03-31T03:45:56;25.60;45.40
14577;DHT22;7375;46.072;14.470;2023-03-31T03:48:23;26.20;44.20
14577;DHT22;7375;46.072;14.470;2023-03-31T03:50:52;26.60;43.50
14577;DHT22;7375;46.072;14.470;2023-03-31T03:53:19;26.80;42.80
14577;DHT22;7375;46.072;14.470;2023-03-31T03:55:46;27.00;42.50
14577;DHT22;7375;46.072;14.470;2023-03-31T03:58:14;27.30;42.10
14577;DHT22;7375;46.072;14.470;2023-03-31T04:00:40;27.70;42.10
14577;DHT22;7375;46.072;14.470;2023-03-31T04:03:07;28.10;40.80
14577;DHT22;7375;46.072;14.470;2023-03-31T04:05:34;28.20;40.50
14577;DHT22;7375;46.072;14.470;2023-03-31T04:08:02;28.70;39.90
14577;DHT22;7375;46.072;14.470;2023-03-31T04:10:30;28.90;39.50
14577;DHT22;7375;46.072;14.470;2023-03-31T04:12:57;29.10;39.10
14577;DHT22;7375;46.072;14.470;2023-03-31T04:15:24;29.30;38.60
14577;DHT22;7375;46.072;14.470;2023-03-31T04:17:51;29.60;38.20
14577;DHT22;7375;46.072;14.470;2023-03-31T04:20:19;29.60;38.10
14577;DHT22;7375;46.072;14.470;2023-03-31T04:22:46;29.70;38.00
14577;DHT22;7375;46.072;14.470;2023-03-31T04:25:16;29.60;38.00
14577;DHT22;7375;46.072;14.470;2023-03-31T04:27:43;29.60;38.10
14577;DHT22;7375;46.072;14.470;2023-03-31T04:30:12;29.70;37.90
14577;DHT22;7375;46.072;14.470;2023-03-31T04:32:38;29.40;38.40
14577;DHT22;7375;46.072;14.470;2023-03-31T04:35:05;29.60;38.20
14577;DHT22;7375;46.072;14.470;2023-03-31T04:37:32;29.50;38.20
14577;DHT22;7375;46.072;14.470;2023-03-31T04:40:07;29.40;38.30
14577;DHT22;7375;46.072;14.470;2023-03-31T04:42:36;29.40;38.20
14577;DHT22;7375;46.072;14.470;2023-03-31T04:45:03;29.40;38.50
14577;DHT22;7375;46.072;14.470;2023-03-31T04:47:29;29.40;38.40
14577;DHT22;7375;46.072;14.470;2023-03-31T04:49:56;29.30;38.30
14577;DHT22;7375;46.072;14.470;2023-03-31T04:52:23;29.40;38.40
14577;DHT22;7375;46.072;14.470;2023-03-31T04:54:50;29.30;38.40
14577;DHT22;7375;46.072;14.470;2023-03-31T04:57:16;29.40;38.50
14577;DHT22;7375;46.072;14.470;2023-03-31T04:59:45;29.30;38.30
14577;DHT22;7375;46.072;14.470;2023-03-31T05:02:11;29.40;38.30
14577;DHT22;7375;46.072;14.470;2023-03-31T05:04:40;29.30;38.40
14577;DHT22;7375;46.072;14.470;2023-03-31T05:07:06;29.40;38.40
14577;DHT22;7375;46.072;14.470;2023-03-31T05:09:33;29.40;38.20
14577;DHT22;7375;46.072;14.470;2023-03-31T05:12:00;29.40;38.20
14577;DHT22;7375;46.072;14.470;2023-03-31T05:14:27;29.40;38.30
14577;DHT22;7375;46.072;14.470;2023-03-31T05:16:55;29.40;38.10
14577;DHT22;7375;46.072;14.470;2023-03-31T05:19:23;29.30;38.40
14577;DHT22;7375;46.072;14.470;2023-03-31T05:21:50;29.30;38.30
14577;DHT22;7375;46.072;14.470;2023-03-31T05:24:17;29.30;38.40
14577;DHT22;7375;46.072;14.470;2023-03-31T05:26:43;29.50;38.30
14577;DHT22;7375;46.072;14.470;2023-03-31T05:29:14;29.60;37.90
14577;DHT22;7375;46.072;14.470;2023-03-31T05:31:41;29.80;37.70
14577;DHT22;7375;46.072;14.470;2023-03-31T05:34:09;29.80;37.80
14577;DHT22;7375;46.072;14.470;2023-03-31T05:36:35;29.80;37.70
14577;DHT22;7375;46.072;14.470;2023-03-31T05:39:03;29.80;37.60
14577;DHT22;7375;46.072;14.470;2023-03-31T05:41:30;29.60;38.10
14577;DHT22;7375;46.072;14.470;2023-03-31T05:43:57;29.40;38.40
14577;DHT22;7375;46.072;14.470;2023-03-31T05:46:24;29.50;38.50
14577;DHT22;7375;46.072;14.470;2023-03-31T05:48:51;29.70;38.60
14577;DHT22;7375;46.072;14.470;2023-03-31T05:51:19;29.70;38.20
14577;DHT22;7375;46.072;14.470;2023-03-31T05:53:46;29.00;39.50
14577;DHT22;7375;46.072;14.470;2023-03-31T05:56:12;28.70;39.90
14577;DHT22;7375;46.072;14.470;2023-03-31T05:58:39;28.70;40.10
14577;DHT22;7375;46.072;14.470;2023-03-31T06:01:07;28.60;40.30
14577;DHT22;7375;46.072;14.470;2023-03-31T06:03:35;28.40;40.70
14577;DHT22;7375;46.072;14.470;2023-03-31T06:06:02;28.10;41.20
14577;DHT22;7375;46.072;14.470;2023-03-31T06:08:31;28.10;41.30
14577;DHT22;7375;46.072;14.470;2023-03-31T06:10:58;27.80;41.10
14577;DHT22;7375;46.072;14.470;2023-03-31T06:13:24;27.50;41.50
14577;DHT22;7375;46.072;14.470;2023-03-31T06:15:52;27.40;41.90
14577;DHT22;7375;46.072;14.470;2023-03-31T06:18:19;27.00;42.40
14577;DHT22;7375;46.072;14.470;2023-03-31T06:20:46;26.80;42.80
14577;DHT22;7375;46.072;14.470;2023-03-31T06:23:12;26.70;43.20
14577;DHT22;7375;46.072;14.470;2023-03-31T06:25:41;26.60;43.20
14577;DHT22;7375;46.072;14.470;2023-03-31T06:28:08;26.30;43.70
14577;DHT22;7375;46.072;14.470;2023-03-31T06:30:34;26.10;44.00
14577;DHT22;7375;46.072;14.470;2023-03-31T06:33:02;26.00;44.30
14577;DHT22;7375;46.072;14.470;2023-03-31T06:35:29;25.80;44.70
14577;DHT22;7375;46.072;14.470;2023-03-31T06:37:56;25.60;45.00
14577;DHT22;7375;46.072;14.470;2023-03-31T06:40:23;25.50;45.20
14577;DHT22;7375;46.072;14.470;2023-03-31T06:42:51;25.40;45.60
14577;DHT22;7375;46.072;14.470;2023-03-31T06:45:18;25.30;45.70
14577;DHT22;7375;46.072;14.470;2023-03-31T06:47:44;25.20;46.00
14577;DHT22;7375;46.072;14.470;2023-03-31T06:50:11;25.10;46.10
14577;DHT22;7375;46.072;14.470;2023-03-31T06:52:38;24.90;46.40
14577;DHT22;7375;46.072;14.470;2023-03-31T06:55:05;24.90;46.40
14577;DHT22;7375;46.072;14.470;2023-03-31T06:57:33;24.80;46.40
14577;DHT22;7375;46.072;14.470;2023-03-31T07:00:03;24.80;46.60
14577;DHT22;7375;46.072;14.470;2023-03-31T07:02:30;24.70;46.70
14577;DHT22;7375;46.072;14.470;2023-03-31T07:04:57;24.60;46.90
14577;DHT22;7375;46.072;14.470;2023-03-31T07:07:24;24.60;47.00
14577;DHT22;7375;46.072;14.470;2023-03-31T07:09:50;24.50;47.10
14577;DHT22;7375;46.072;14.470;2023-03-31T07:12:17;24.50;47.30
14577;DHT22;7375;46.072;14.470;2023-03-31T07:14:45;24.30;47.40
14577;DHT22;7375;46.072;14.470;2023-03-31T07:17:13;24.30;47.70
14577;DHT22;7375;46.072;14.470;2023-03-31T07:19:40;24.20;47.70
14577;DHT22;7375;46.072;14.470;2023-03-31T07:22:07;24.20;48.60
14577;DHT22;7375;46.072;14.470;2023-03-31T07:24:39;24.10;48.10
14577;DHT22;7375;46.072;14.470;2023-03-31T07:27:06;24.10;48.30
14577;DHT22;7375;46.072;14.470;2023-03-31T07:29:33;23.70;48.00
14577;DHT22;7375;46.072;14.470;2023-03-31T07:32:00;23.80;48.80
14577;DHT22;7375;46.072;14.470;2023-03-31T07:34:28;23.80;48.60
14577;DHT22;7375;46.072;14.470;2023-03-31T07:36:55;23.80;48.60
14577;DHT22;7375;46.072;14.470;2023-03-31T07:39:22;23.80;48.60
14577;DHT22;7375;46.072;14.470;2023-03-31T07:41:50;23.80;48.60
14577;DHT22;7375;46.072;14.470;2023-03-31T07:44:17;23.80;48.60
14577;DHT22;7375;46.072;14.470;2023-03-31T07:46:46;23.70;48.50
14577;DHT22;7375;46.072;14.470;2023-03-31T07:49:13;23.80;48.70
14577;DHT22;7375;46.072;14.470;2023-03-31T07:51:43;23.70;48.70
14577;DHT22;7375;46.072;14.470;2023-03-31T07:54:10;23.70;48.80
14577;DHT22;7375;46.072;14.470;2023-03-31T07:56:36;23.60;48.80
14577;DHT22;7375;46.072;14.470;2023-03-31T07:59:03;23.60;49.00
14577;DHT22;7375;46.072;14.470;2023-03-31T08:01:30;23.50;49.10
14577;DHT22;7375;46.072;14.470;2023-03-31T08:03:57;23.60;49.10
14577;DHT22;7375;46.072;14.470;2023-03-31T08:06:24;23.50;49.50
14577;DHT22;7375;46.072;14.470;2023-03-31T08:08:53;23.50;49.10
14577;DHT22;7375;46.072;14.470;2023-03-31T08:11:19;23.40;49.20
14577;DHT22;7375;46.072;14.470;2023-03-31T08:13:46;23.50;49.30
14577;DHT22;7375;46.072;14.470;2023-03-31T08:16:13;23.70;49.00
14577;DHT22;7375;46.072;14.470;2023-03-31T08:18:40;23.80;48.60
14577;DHT22;7375;46.072;14.470;2023-03-31T08:21:08;23.80;48.40
14577;DHT22;7375;46.072;14.470;2023-03-31T08:23:35;23.90;48.40
14577;DHT22;7375;46.072;14.470;2023-03-31T08:26:10;23.60;48.70
14577;DHT22;7375;46.072;14.470;2023-03-31T08:28:37;23.40;49.10
14577;DHT22;7375;46.072;14.470;2023-03-31T08:31:04;23.40;49.40
14577;DHT22;7375;46.072;14.470;2023-03-31T08:33:32;23.30;49.60
14577;DHT22;7375;46.072;14.470;2023-03-31T08:36:00;23.30;49.70
14577;DHT22;7375;46.072;14.470;2023-03-31T08:38:27;23.20;49.60
14577;DHT22;7375;46.072;14.470;2023-03-31T08:40:57;23.20;49.80
14577;DHT22;7375;46.072;14.470;2023-03-31T08:43:26;23.10;49.90
14577;DHT22;7375;46.072;14.470;2023-03-31T08:45:55;23.10;49.90
14577;DHT22;7375;46.072;14.470;2023-03-31T08:48:23;23.10;49.90
14577;DHT22;7375;46.072;14.470;2023-03-31T08:50:52;23.10;50.00
14577;DHT22;7375;46.072;14.470;2023-03-31T08:53:21;23.00;50.00
14577;DHT22;7375;46.072;14.470;2023-03-31T08:55:51;23.00;50.20
14577;DHT22;7375;46.072;14.470;2023-03-31T08:58:23;23.00;50.20
14577;DHT22;7375;46.072;14.470;2023-03-31T09:00:55;22.90;50.00
14577;DHT22;7375;46.072;14.470;2023-03-31T09:03:27;22.90;50.20
14577;DHT22;7375;46.072;14.470;2023-03-31T09:05:57;22.90;50.10
14577;DHT22;7375;46.072;14.470;2023-03-31T09:08:30;22.80;50.40
14577;DHT22;7375;46.072;14.470;2023-03-31T09:10:58;22.80;50.60
14577;DHT22;7375;46.072;14.470;2023-03-31T09:13:37;22.70;50.70
14577;DHT22;7375;46.072;14.470;2023-03-31T09:16:11;22.70;50.70
14577;DHT22;7375;46.072;14.470;2023-03-31T09:18:41;22.60;50.60
14577;DHT22;7375;46.072;14.470;2023-03-31T09:21:13;22.60;50.80
14577;DHT22;7375;46.072;14.470;2023-03-31T09:23:43;22.60;50.70
14577;DHT22;7375;46.072;14.470;2023-03-31T09:26:17;22.60;50.80
14577;DHT22;7375;46.072;14.470;2023-03-31T09:28:46;22.70;50.70
14577;DHT22;7375;46.072;14.470;2023-03-31T09:31:16;22.60;50.70
14577;DHT22;7375;46.072;14.470;2023-03-31T09:33:45;22.70;50.70
14577;DHT22;7375;46.072;14.470;2023-03-31T09:36:13;22.60;50.60
14577;DHT22;7375;46.072;14.470;2023-03-31T09:38:41;22.60;50.80
14577;DHT22;7375;46.072;14.470;2023-03-31T09:41:08;22.50;50.90
14577;DHT22;7375;46.072;14.470;2023-03-31T09:43:36;22.60;50.90
14577;DHT22;7375;46.072;14.470;2023-03-31T09:46:04;22.50;50.80
14577;DHT22;7375;46.072;14.470;2023-03-31T09:48:39;22.60;50.90
14577;DHT22;7375;46.072;14.470;2023-03-31T09:51:12;22.50;50.90
14577;DHT22;7375;46.072;14.470;2023-03-31T09:53:42;22.50;51.00
14577;DHT22;7375;46.072;14.470;2023-03-31T09:56:11;22.50;51.10
14577;DHT22;7375;46.072;14.470;2023-03-31T09:58:39;22.40;51.10
14577;DHT22;7375;46.072;14.470;2023-03-31T10:01:06;22.40;51.10
14577;DHT22;7375;46.072;14.470;2023-03-31T10:03:40;22.40;51.30
14577;DHT22;7375;46.072;14.470;2023-03-31T10:06:13;22.30;51.10
14577;DHT22;7375;46.072;14.470;2023-03-31T10:08:40;22.40;51.50
14577;DHT22;7375;46.072;14.470;2023-03-31T10:11:13;22.40;51.30
14577;DHT22;7375;46.072;14.470;2023-03-31T10:13:42;22.40;51.30
14577;DHT22;7375;46.072;14.470;2023-03-31T10:16:11;22.40;51.40
14577;DHT22;7375;46.072;14.470;2023-03-31T10:18:39;22.30;51.20
14577;DHT22;7375;46.072;14.470;2023-03-31T10:21:21;22.30;51.20
14577;DHT22;7375;46.072;14.470;2023-03-31T10:23:50;22.40;51.20
14577;DHT22;7375;46.072;14.470;2023-03-31T10:26:18;22.40;51.10
14577;DHT22;7375;46.072;14.470;2023-03-31T10:28:46;22.40;51.20
14577;DHT22;7375;46.072;14.470;2023-03-31T10:31:13;22.40;51.00
14577;DHT22;7375;46.072;14.470;2023-03-31T10:33:41;22.40;51.00
14577;DHT22;7375;46.072;14.470;2023-03-31T10:36:13;22.40;50.90
14577;DHT22;7375;46.072;14.470;2023-03-31T10:38:41;22.40;51.20
14577;DHT22;7375;46.072;14.470;2023-03-31T10:41:10;22.40;51.30
14577;DHT22;7375;46.072;14.470;2023-03-31T10:43:39;22.30;51.40
14577;DHT22;7375;46.072;14.470;2023-03-31T10:46:06;22.30;51.50
14577;DHT22;7375;46.072;14.470;2023-03-31T10:48:34;22.20;51.50
14577;DHT22;7375;46.072;14.470;2023-03-31T10:51:03;22.20;51.60
14577;DHT22;7375;46.072;14.470;2023-03-31T10:53:38;22.20;51.70
14577;DHT22;7375;46.072;14.470;2023-03-31T10:56:08;22.10;51.70
14577;DHT22;7375;46.072;14.470;2023-03-31T10:58:41;22.10;51.70
14577;DHT22;7375;46.072;14.470;2023-03-31T11:01:17;22.10;51.90
14577;DHT22;7375;46.072;14.470;2023-03-31T11:03:56;22.10;51.90
14577;DHT22;7375;46.072;14.470;2023-03-31T11:06:27;22.10;52.00
14577;DHT22;7375;46.072;14.470;2023-03-31T11:08:58;22.00;52.00
14577;DHT22;7375;46.072;14.470;2023-03-31T11:11:32;22.00;52.00
14577;DHT22;7375;46.072;14.470;2023-03-31T11:14:06;22.00;52.10
14577;DHT22;7375;46.072;14.470;2023-03-31T11:16:36;22.00;52.20
14577;DHT22;7375;46.072;14.470;2023-03-31T11:19:10;22.00;52.20
14577;DHT22;7375;46.072;14.470;2023-03-31T11:21:41;21.90;52.20
14577;DHT22;7375;46.072;14.470;2023-03-31T11:24:14;21.90;52.20
14577;DHT22;7375;46.072;14.470;2023-03-31T11:26:45;21.90;52.30
14577;DHT22;7375;46.072;14.470;2023-03-31T11:29:19;21.90;52.30
14577;DHT22;7375;46.072;14.470;2023-03-31T11:31:49;21.80;52.30
14577;DHT22;7375;46.072;14.470;2023-03-31T11:34:20;21.80;52.40
14577;DHT22;7375;46.072;14.470;2023-03-31T11:36:56;21.80;52.50
14577;DHT22;7375;46.072;14.470;2023-03-31T11:39:30;21.70;52.50
14577;DHT22;7375;46.072;14.470;2023-03-31T11:42:01;21.70;52.60
14577;DHT22;7375;46.072;14.470;2023-03-31T11:44:34;21.70;52.70
14577;DHT22;7375;46.072;14.470;2023-03-31T11:47:04;21.60;52.70
14577;DHT22;7375;46.072;14.470;2023-03-31T11:49:32;21.60;52.80
14577;DHT22;7375;46.072;14.470;2023-03-31T11:52:05;21.60;52.90
14577;DHT22;7375;46.072;14.470;2023-03-31T11:54:34;21.60;53.00
14577;DHT22;7375;46.072;14.470;2023-03-31T11:57:05;21.60;53.00
14577;DHT22;7375;46.072;14.470;2023-03-31T11:59:37;21.50;52.90
14577;DHT22;7375;46.072;14.470;2023-03-31T12:02:09;21.50;52.70
14577;DHT22;7375;46.072;14.470;2023-03-31T12:04:38;21.50;52.70
14577;DHT22;7375;46.072;14.470;2023-03-31T12:07:10;21.50;52.80
14577;DHT22;7375;46.072;14.470;2023-03-31T12:09:42;21.50;52.80
14577;DHT22;7375;46.072;14.470;2023-03-31T12:12:17;21.40;52.80
14577;DHT22;7375;46.072;14.470;2023-03-31T12:14:47;21.40;52.80
14577;DHT22;7375;46.072;14.470;2023-03-31T12:17:16;21.40;52.90
14577;DHT22;7375;46.072;14.470;2023-03-31T12:19:45;21.40;52.80
14577;DHT22;7375;46.072;14.470;2023-03-31T12:22:14;21.50;52.90
14577;DHT22;7375;46.072;14.470;2023-03-31T12:24:42;21.50;52.80
14577;DHT22;7375;46.072;14.470;2023-03-31T12:27:10;21.60;52.80
14577;DHT22;7375;46.072;14.470;2023-03-31T12:29:39;21.60;52.70
14577;DHT22;7375;46.072;14.470;2023-03-31T12:32:09;21.60;52.70
14577;DHT22;7375;46.072;14.470;2023-03-31T12:34:39;21.60;52.60
14577;DHT22;7375;46.072;14.470;2023-03-31T12:37:14;21.70;52.50
14577;DHT22;7375;46.072;14.470;2023-03-31T12:39:46;21.80;52.20
14577;DHT22;7375;46.072;14.470;2023-03-31T12:42:32;21.90;52.10
14577;DHT22;7375;46.072;14.470;2023-03-31T12:45:05;21.90;52.00
14577;DHT22;7375;46.072;14.470;2023-03-31T12:47:50;21.90;51.90
14577;DHT22;7375;46.072;14.470;2023-03-31T12:50:28;21.90;51.90
14577;DHT22;7375;46.072;14.470;2023-03-31T12:52:59;21.90;52.00
14577;DHT22;7375;46.072;14.470;2023-03-31T12:55:35;21.90;52.00
14577;DHT22;7375;46.072;14.470;2023-03-31T13:01:00;21.90;52.10
14577;DHT22;7375;46.072;14.470;2023-03-31T13:03:42;21.90;52.00
14577;DHT22;7375;46.072;14.470;2023-03-31T13:06:10;21.90;52.10
14577;DHT22;7375;46.072;14.470;2023-03-31T13:08:51;21.80;52.10
14577;DHT22;7375;46.072;14.470;2023-03-31T13:11:18;21.90;52.20
14577;DHT22;7375;46.072;14.470;2023-03-31T13:13:46;21.90;52.10
14577;DHT22;7375;46.072;14.470;2023-03-31T13:16:18;21.90;52.10
14577;DHT22;7375;46.072;14.470;2023-03-31T13:18:51;21.90;52.00
14577;DHT22;7375;46.072;14.470;2023-03-31T13:21:18;21.90;52.00
14577;DHT22;7375;46.072;14.470;2023-03-31T13:23:44;21.90;52.10
14577;DHT22;7375;46.072;14.470;2023-03-31T13:29:16;21.90;52.20
14577;DHT22;7375;46.072;14.470;2023-03-31T13:34:31;21.80;52.30
14577;DHT22;7375;46.072;14.470;2023-03-31T13:37:05;21.80;52.30
14577;DHT22;7375;46.072;14.470;2023-03-31T13:39:36;21.70;52.30
14577;DHT22;7375;46.072;14.470;2023-03-31T13:42:15;21.70;52.40
14577;DHT22;7375;46.072;14.470;2023-03-31T13:44:49;21.70;52.50
14577;DHT22;7375;46.072;14.470;2023-03-31T13:47:30;21.60;52.50
14577;DHT22;7375;46.072;14.470;2023-03-31T13:50:07;21.60;52.50
14577;DHT22;7375;46.072;14.470;2023-03-31T13:52:38;21.60;52.60
14577;DHT22;7375;46.072;14.470;2023-03-31T13:55:20;21.60;52.60
14577;DHT22;7375;46.072;14.470;2023-03-31T13:57:55;21.60;53.30
14577;DHT22;7375;46.072;14.470;2023-03-31T14:00:33;21.50;52.70
14577;DHT22;7375;46.072;14.470;2023-03-31T14:05:46;21.50;52.80
14577;DHT22;7375;46.072;14.470;2023-03-31T14:08:17;21.50;52.90
14577;DHT22;7375;46.072;14.470;2023-03-31T14:10:45;21.40;52.90
14577;DHT22;7375;46.072;14.470;2023-03-31T14:13:13;21.40;53.00
14577;DHT22;7375;46.072;14.470;2023-03-31T14:15:40;21.40;53.00
14577;DHT22;7375;46.072;14.470;2023-03-31T14:18:09;21.40;53.30
14577;DHT22;7375;46.072;14.470;2023-03-31T14:20:39;21.40;53.30
14577;DHT22;7375;46.072;14.470;2023-03-31T14:23:12;21.40;54.00
14577;DHT22;7375;46.072;14.470;2023-03-31T14:25:47;21.30;53.40
14577;DHT22;7375;46.072;14.470;2023-03-31T14:28:20;21.30;53.40
14577;DHT22;7375;46.072;14.470;2023-03-31T14:30:52;21.30;53.50
14577;DHT22;7375;46.072;14.470;2023-03-31T14:33:26;21.30;53.50
14577;DHT22;7375;46.072;14.470;2023-03-31T14:35:56;21.30;53.40
14577;DHT22;7375;46.072;14.470;2023-03-31T14:38:27;21.20;53.40
14577;DHT22;7375;46.072;14.470;2023-03-31T14:40:55;21.30;53.30
14577;DHT22;7375;46.072;14.470;2023-03-31T14:43:26;21.20;53.30
14577;DHT22;7375;46.072;14.470;2023-03-31T14:45:57;21.20;53.40
14577;DHT22;7375;46.072;14.470;2023-03-31T14:48:25;21.20;53.50
14577;DHT22;7375;46.072;14.470;2023-03-31T14:50:55;21.20;53.70
14577;DHT22;7375;46.072;14.470;2023-03-31T14:53:23;21.20;53.80
14577;DHT22;7375;46.072;14.470;2023-03-31T14:55:51;21.20;53.90
14577;DHT22;7375;46.072;14.470;2023-03-31T14:58:22;21.20;53.90
14577;DHT22;7375;46.072;14.470;2023-03-31T15:00:50;21.20;54.00
14577;DHT22;7375;46.072;14.470;2023-03-31T15:03:17;21.20;54.50
14577;DHT22;7375;46.072;14.470;2023-03-31T15:05:44;21.20;54.80
14577;DHT22;7375;46.072;14.470;2023-03-31T15:08:13;21.20;54.60
14577;DHT22;7375;46.072;14.470;2023-03-31T15:10:42;21.20;54.40
14577;DHT22;7375;46.072;14.470;2023-03-31T15:13:14;21.20;54.30
14577;DHT22;7375;46.072;14.470;2023-03-31T15:15:42;21.20;54.10
14577;DHT22;7375;46.072;14.470;2023-03-31T15:18:10;21.20;54.20
14577;DHT22;7375;46.072;14.470;2023-03-31T15:20:39;21.20;54.20
14577;DHT22;7375;46.072;14.470;2023-03-31T15:23:17;21.20;54.30
14577;DHT22;7375;46.072;14.470;2023-03-31T15:25:45;21.20;54.30
14577;DHT22;7375;46.072;14.470;2023-03-31T15:28:14;21.20;54.30
14577;DHT22;7375;46.072;14.470;2023-03-31T15:30:41;21.20;54.40
14577;DHT22;7375;46.072;14.470;2023-03-31T15:33:14;21.20;49.30
14577;DHT22;7375;46.072;14.470;2023-03-31T15:35:42;21.10;53.80
14577;DHT22;7375;46.072;14.470;2023-03-31T15:38:09;21.10;53.70
14577;DHT22;7375;46.072;14.470;2023-03-31T15:40:37;21.10;53.10
14577;DHT22;7375;46.072;14.470;2023-03-31T15:43:06;21.10;53.10
14577;DHT22;7375;46.072;14.470;2023-03-31T15:45:43;21.10;53.50
14577;DHT22;7375;46.072;14.470;2023-03-31T15:48:13;21.10;53.50
14577;DHT22;7375;46.072;14.470;2023-03-31T15:50:41;21.10;53.70
14577;DHT22;7375;46.072;14.470;2023-03-31T15:53:19;21.10;53.80
14577;DHT22;7375;46.072;14.470;2023-03-31T15:55:46;21.10;54.60
14577;DHT22;7375;46.072;14.470;2023-03-31T15:58:16;21.10;53.90
14577;DHT22;7375;46.072;14.470;2023-03-31T16:00:44;21.10;53.80
14577;DHT22;7375;46.072;14.470;2023-03-31T16:03:13;21.10;53.90
14577;DHT22;7375;46.072;14.470;2023-03-31T16:05:45;21.10;53.90
14577;DHT22;7375;46.072;14.470;2023-03-31T16:08:15;21.10;54.30
14577;DHT22;7375;46.072;14.470;2023-03-31T16:10:43;21.00;53.90